createdAt,value
2018-10-02T00:03:15.842Z,41.49
2018-10-02T00:08:19.115Z,41.32
2018-10-02T00:13:27.662Z,41.52
2018-10-02T00:18:31.039Z,41.22
2018-10-02T00:23:34.404Z,41.58
2018-10-02T00:28:37.664Z,41.24
2018-10-02T00:33:40.922Z,41.64
2018-10-02T00:38:44.188Z,41.84
2018-10-02T00:43:47.448Z,41.53
2018-10-02T00:48:50.707Z,41.55
2018-10-02T00:53:53.964Z,41.60
2018-10-02T00:58:57.220Z,41.86
2018-10-02T01:04:00.503Z,41.57
2018-10-02T01:09:04.769Z,41.52
2018-10-02T01:14:08.033Z,42.03
2018-10-02T01:19:11.302Z,41.80
2018-10-02T01:24:14.563Z,42.02
2018-10-02T01:29:17.835Z,42.04
2018-10-02T01:34:21.087Z,41.59
2018-10-02T01:39:24.344Z,42.02
2018-10-02T01:44:27.611Z,41.99
2018-10-02T01:49:30.915Z,41.86
2018-10-02T01:54:34.172Z,41.74
2018-10-02T01:59:37.559Z,41.68
2018-10-02T02:04:40.815Z,41.70
2018-10-02T02:09:44.111Z,41.82
2018-10-02T02:14:47.371Z,42.20
2018-10-02T02:19:50.631Z,42.26
2018-10-02T02:24:53.887Z,41.95
2018-10-02T02:29:57.156Z,42.29
2018-10-02T02:35:00.427Z,42.23
2018-10-02T02:40:03.892Z,42.21
2018-10-02T02:45:07.177Z,42.04
2018-10-02T02:50:15.943Z,42.56
2018-10-02T02:55:19.251Z,42.49
2018-10-02T03:00:22.523Z,42.43
2018-10-02T03:05:25.880Z,42.43
2018-10-02T03:10:29.144Z,42.50
2018-10-02T03:15:32.543Z,42.16
2018-10-02T03:20:35.810Z,42.54
2018-10-02T03:25:39.084Z,42.33
2018-10-02T03:30:42.424Z,42.35
2018-10-02T03:35:45.707Z,42.22
2018-10-02T03:40:48.960Z,42.69
2018-10-02T03:45:52.266Z,42.48
2018-10-02T03:50:55.535Z,42.48
2018-10-02T03:55:58.803Z,42.33
2018-10-02T04:01:02.070Z,42.00
2018-10-02T04:06:05.335Z,42.29
2018-10-02T04:11:08.763Z,42.86
2018-10-02T04:16:12.044Z,42.72
2018-10-02T04:21:19.270Z,42.57
2018-10-02T04:26:22.531Z,42.79
2018-10-02T04:31:25.799Z,42.94
2018-10-02T04:36:29.203Z,42.60
2018-10-02T04:41:32.480Z,42.96
2018-10-02T04:46:35.760Z,42.75
2018-10-02T04:51:39.027Z,42.82
2018-10-02T04:56:42.287Z,42.84
2018-10-02T05:01:45.547Z,42.58
2018-10-02T05:06:48.814Z,42.71
2018-10-02T05:11:52.072Z,42.43
2018-10-02T05:16:55.399Z,42.42
2018-10-02T05:21:58.656Z,42.88
2018-10-02T05:27:01.956Z,42.43
2018-10-02T05:32:05.211Z,42.71
2018-10-02T05:37:08.607Z,42.65
2018-10-02T05:42:11.899Z,42.26
2018-10-02T05:47:15.161Z,42.48
2018-10-02T05:52:18.424Z,42.69
2018-10-02T05:57:21.699Z,42.70
2018-10-02T06:02:27.347Z,42.22
2018-10-02T06:07:30.616Z,42.29
2018-10-02T06:12:33.893Z,42.29
2018-10-02T06:17:37.173Z,42.56
2018-10-02T06:22:40.440Z,42.06
2018-10-02T06:27:43.711Z,42.24
2018-10-02T06:32:47.038Z,42.49
2018-10-02T06:37:50.272Z,42.56
2018-10-02T06:42:53.576Z,42.39
2018-10-02T06:47:56.869Z,42.40
2018-10-02T06:53:00.459Z,36.77
2018-10-02T06:58:03.750Z,35.11
2018-10-02T07:03:07.260Z,35.24
2018-10-02T07:08:10.559Z,35.72
2018-10-02T07:13:13.844Z,35.96
2018-10-02T07:18:17.133Z,35.71
2018-10-02T07:23:20.539Z,34.57
2018-10-02T07:28:23.907Z,34.39
2018-10-02T07:33:27.184Z,34.88
2018-10-02T07:38:30.611Z,35.38
2018-10-02T07:43:33.909Z,35.19
2018-10-02T07:48:37.201Z,35.76
2018-10-02T07:53:40.555Z,35.60
2018-10-02T07:58:43.792Z,36.09
2018-10-02T08:03:47.178Z,36.15
2018-10-02T08:08:50.525Z,36.39
2018-10-02T08:13:53.802Z,36.16
2018-10-02T08:18:57.104Z,36.52
2018-10-02T08:24:00.455Z,36.66
2018-10-02T08:29:03.739Z,36.70
2018-10-02T08:34:07.029Z,36.51
2018-10-02T08:39:11.121Z,36.98
2018-10-02T08:44:14.400Z,36.92
2018-10-02T08:49:17.682Z,37.46
2018-10-02T08:54:20.968Z,37.69
2018-10-02T08:59:24.257Z,37.38
2018-10-02T09:04:27.624Z,37.47
2018-10-02T09:09:30.921Z,37.30
2018-10-02T09:14:34.199Z,37.32
2018-10-02T09:19:37.487Z,37.38
2018-10-02T09:24:40.831Z,37.65
2018-10-02T09:29:49.602Z,37.29
2018-10-02T09:34:58.356Z,37.49
2018-10-02T09:40:06.990Z,37.46
2018-10-02T09:45:10.209Z,37.41
2018-10-02T09:50:13.494Z,36.99
2018-10-02T09:55:16.784Z,36.97
2018-10-02T10:00:26.299Z,37.16
2018-10-02T10:05:29.589Z,37.22
2018-10-02T10:10:32.948Z,36.94
2018-10-02T10:15:36.188Z,37.13
2018-10-02T10:20:39.472Z,37.36
2018-10-02T10:25:42.751Z,37.27
2018-10-02T10:30:46.033Z,37.61
2018-10-02T10:35:49.320Z,37.38
2018-10-02T10:40:52.642Z,37.67
2018-10-02T10:45:55.932Z,37.55
2018-10-02T10:50:59.229Z,37.86
2018-10-02T10:56:02.530Z,38.03
2018-10-02T11:01:05.849Z,38.09
2018-10-02T11:06:09.140Z,37.91
2018-10-02T11:11:12.440Z,37.70
2018-10-02T11:16:15.733Z,37.75
2018-10-02T11:21:19.043Z,37.98
2018-10-02T11:26:22.327Z,37.63
2018-10-02T11:31:25.698Z,37.99
2018-10-02T11:36:28.924Z,37.58
2018-10-02T11:41:32.236Z,37.88
2018-10-02T11:46:35.548Z,37.73
2018-10-02T11:51:39.158Z,37.77
2018-10-02T11:56:42.444Z,37.96
2018-10-02T12:01:45.807Z,38.51
2018-10-02T12:06:49.156Z,38.75
2018-10-02T12:11:52.436Z,38.56
2018-10-02T12:16:55.736Z,38.39
2018-10-02T12:21:59.048Z,38.71
2018-10-02T12:27:02.341Z,38.76
2018-10-02T12:32:05.624Z,39.15
2018-10-02T12:37:08.917Z,39.31
2018-10-02T12:42:13.743Z,39.19
2018-10-02T12:47:17.181Z,39.37
2018-10-02T12:52:20.485Z,39.22
2018-10-02T12:57:23.794Z,39.22
2018-10-02T13:02:27.079Z,37.61
2018-10-02T13:07:30.404Z,37.75
2018-10-02T13:12:33.697Z,38.07
2018-10-02T13:17:36.989Z,38.31
2018-10-02T13:22:40.280Z,38.40
2018-10-02T13:27:43.601Z,38.45
2018-10-02T13:32:46.900Z,39.02
2018-10-02T13:37:50.242Z,39.39
2018-10-02T13:42:53.548Z,39.33
2018-10-02T13:47:56.849Z,39.37
2018-10-02T13:53:00.280Z,39.70
2018-10-02T13:58:03.644Z,39.50
2018-10-02T14:03:06.949Z,39.26
2018-10-02T14:08:10.450Z,39.61
2018-10-02T14:13:13.740Z,39.24
2018-10-02T14:18:17.041Z,39.63
2018-10-02T14:23:20.352Z,39.55
2018-10-02T14:34:01.348Z,39.16
2018-10-02T14:39:06.849Z,39.04
2018-10-02T14:44:10.780Z,39.32
2018-10-02T14:49:14.120Z,39.37
2018-10-02T14:54:17.629Z,39.33
2018-10-02T14:59:21.536Z,39.54
2018-10-02T15:04:24.873Z,39.23
2018-10-02T15:09:28.149Z,39.37
2018-10-02T15:14:31.428Z,39.51
2018-10-02T15:19:34.864Z,39.52
2018-10-02T15:24:38.592Z,39.46
2018-10-02T15:29:41.978Z,39.55
2018-10-02T15:34:45.272Z,39.70
2018-10-02T15:39:48.662Z,39.44
2018-10-02T15:44:52.012Z,39.66
2018-10-02T15:49:55.448Z,39.51
2018-10-02T15:54:58.707Z,39.45
2018-10-02T16:00:03.075Z,39.67
2018-10-02T16:05:06.532Z,39.44
2018-10-02T16:10:09.813Z,39.53
2018-10-02T16:15:13.266Z,39.60
2018-10-02T16:20:16.837Z,39.91
2018-10-02T16:25:20.260Z,40.26
2018-10-02T16:30:23.528Z,40.01
2018-10-02T16:35:26.805Z,40.45
2018-10-02T16:40:30.084Z,40.39
2018-10-02T16:45:33.398Z,40.02
2018-10-02T16:50:36.663Z,40.52
2018-10-02T16:55:39.929Z,40.12
2018-10-02T17:00:43.228Z,40.89
2018-10-02T17:05:46.707Z,40.50
2018-10-02T17:10:49.999Z,40.50
2018-10-02T17:15:53.711Z,40.68
2018-10-02T17:20:57.969Z,40.83
2018-10-02T17:26:02.319Z,40.58
2018-10-02T17:31:06.450Z,40.76
2018-10-02T17:36:10.099Z,41.05
2018-10-02T17:41:13.388Z,41.00
2018-10-02T17:46:17.532Z,40.80
2018-10-02T17:51:20.855Z,40.77
2018-10-02T17:56:24.281Z,40.86
2018-10-02T18:01:27.644Z,40.71
2018-10-02T18:06:31.080Z,41.12
2018-10-02T18:11:34.385Z,40.65
2018-10-02T18:16:38.125Z,41.18
2018-10-02T18:21:41.784Z,40.97
2018-10-02T18:26:45.052Z,40.55
2018-10-02T18:31:50.026Z,40.42
2018-10-02T18:36:53.781Z,40.33
2018-10-02T18:41:57.147Z,40.42
2018-10-02T18:47:00.460Z,40.41
2018-10-02T18:52:03.752Z,40.32
2018-10-02T18:57:08.163Z,40.45
2018-10-02T19:02:11.573Z,40.56
2018-10-02T19:07:15.021Z,40.55
2018-10-02T19:12:19.764Z,40.76
2018-10-02T19:17:23.033Z,40.65
2018-10-02T19:22:26.513Z,40.25
2018-10-02T19:27:29.928Z,40.52
2018-10-02T19:32:33.252Z,40.47
2018-10-02T19:37:41.944Z,40.30
2018-10-02T19:42:45.153Z,40.09
2018-10-02T19:47:48.415Z,40.54
2018-10-02T19:52:53.123Z,40.42
2018-10-02T19:57:57.347Z,40.07
2018-10-02T20:03:01.183Z,40.30
2018-10-02T20:08:04.697Z,40.23
2018-10-02T20:13:08.003Z,40.11
2018-10-02T20:18:11.752Z,40.24
2018-10-02T20:23:15.296Z,40.51
2018-10-02T20:28:18.577Z,40.42
2018-10-02T20:33:22.100Z,40.07
2018-10-02T20:38:25.611Z,40.18
2018-10-02T20:43:28.936Z,40.64
2018-10-02T20:48:32.200Z,40.27
2018-10-02T20:53:35.733Z,40.85
2018-10-02T20:58:39.735Z,40.85
2018-10-02T21:03:42.995Z,40.39
2018-10-02T21:08:46.675Z,40.61
2018-10-02T21:13:49.989Z,40.62
2018-10-02T21:18:53.252Z,40.84
2018-10-02T21:23:56.588Z,40.88
2018-10-02T21:29:01.399Z,41.08
2018-10-02T21:34:05.564Z,41.00
2018-10-02T21:39:09.444Z,40.75
2018-10-02T21:44:12.736Z,41.04
2018-10-02T21:49:16.180Z,41.13
2018-10-02T21:54:19.629Z,40.92
2018-10-02T21:59:23.099Z,41.25
2018-10-02T22:04:26.553Z,41.13
2018-10-02T22:09:29.849Z,40.97
2018-10-02T22:14:33.422Z,40.88
2018-10-02T22:19:36.764Z,41.00
2018-10-02T22:24:40.029Z,41.17
2018-10-02T22:29:43.326Z,41.03
2018-10-02T22:34:46.615Z,41.34
2018-10-02T22:39:49.909Z,41.34
2018-10-02T22:44:53.398Z,41.02
2018-10-02T22:49:56.796Z,41.11
2018-10-02T22:55:00.415Z,41.44
2018-10-02T23:00:04.172Z,41.05
2018-10-02T23:05:07.460Z,41.49
2018-10-02T23:10:10.733Z,41.41
2018-10-02T23:15:14.000Z,41.18
2018-10-02T23:20:17.264Z,40.90
2018-10-02T23:25:20.537Z,41.16
2018-10-02T23:30:23.800Z,41.45
2018-10-02T23:35:27.121Z,41.07
2018-10-02T23:40:30.495Z,41.50
2018-10-02T23:45:33.756Z,41.43
2018-10-02T23:50:37.115Z,41.28
2018-10-02T23:55:40.421Z,41.42
